Terminal Aerodrome Forecast
Issued by NWS Twin Cities, MN

Home | Current Version | Previous Version | Text Only | Print | Product List | Glossary On
Versions: 1 2 3 4 5 6 7 8 9 10 11 12 13 14 15 16 17 18
000
FTUS43 KMPX 160500
TAFEAU
TAF
KEAU 160533Z 1606/1706 12005KT P6SM OVC100
     FM160800 11014KT P6SM VCSH OVC080
     FM161000 10015G22KT 6SM -SN OVC050
     FM161200 10017G24KT 3SM -SN OVC040
     FM161500 11015G25KT P6SM -RA OVC030
     FM162300 12014G23KT 3SM -RA BR OVC010=

USA.gov is the U.S. government's official web portal to all federal, state and local government web resources and services.